Karm Viking — LAIZ — position and weather

sailwx.info

Track history (hours):
 
Tides and Currents Weather Stations Pressure Air Temp Water Temp Dewpoint Dewpoint Depression Visibility Wind Speed Wind Dir Waves Ship Positions

Karm Viking

Last reported at 2015-Apr-20 18:31 UTC. Time now 2015-May-05 08:13 UTC.
Position N 59°28' E 005°00'.
Warning: this ship's position is 14 days out of date.

Length 40 m; draft 5 m.

Type: Other ship. MMSI: 258274000.

Date/timePositionNaut miles runAvg speedWind from/ knotsBaromVisibWave heightAir tempDewpointWater temp
2015-Apr-20 18:31N 59°28' E 005°00'9 3.1
2015-Apr-20 15:33N 59°24' E 005°16'0 0.0
2015-Apr-20 14:33N 59°24' E 005°16'0 0.0
2015-Apr-20 13:33N 59°24' E 005°16'0 0.0
2015-Apr-20 12:33N 59°24' E 005°16'0 0.0
2015-Apr-20 11:33N 59°24' E 005°16'0 0.0
2015-Apr-20 10:33N 59°24' E 005°16'0 0.0
2015-Apr-20 09:33N 59°24' E 005°16'0 0.0
2015-Apr-20 08:33N 59°24' E 005°16'0 0.0
2015-Apr-20 07:33N 59°24' E 005°16'0 0.0
2015-Apr-20 06:33N 59°24' E 005°16'2 1.6
2015-Apr-20 05:33N 59°25' E 005°14'9 8.4
2015-Apr-20 04:32N 59°27' E 004°58'19 8.9
2015-Apr-20 02:27N 59°27' E 004°22'8 9.3
2015-Apr-20 01:32N 59°26' E 004°05'  
Track history (hours):
 
Tides and Currents Weather Stations Pressure Air Temp Water Temp Dewpoint Dewpoint Depression Visibility Wind Speed Wind Dir Waves Ship Positions

Karm Viking

Last reported at 2015-Apr-20 18:31 UTC. Time now 2015-May-05 08:13 UTC.
Position N 59°28' E 005°00'.
Warning: this ship's position is 14 days out of date.

Length 40 m; draft 5 m.

Type: Other ship. MMSI: 258274000.

Date/timePositionNaut miles runAvg speedWind from/ knotsBaromVisibWave heightAir tempDewpointWater temp
2015-Apr-20 18:31N 59°28' E 005°00'9 3.1
2015-Apr-20 15:33N 59°24' E 005°16'0 0.0
2015-Apr-20 14:33N 59°24' E 005°16'0 0.0
2015-Apr-20 13:33N 59°24' E 005°16'0 0.0
2015-Apr-20 12:33N 59°24' E 005°16'0 0.0
2015-Apr-20 11:33N 59°24' E 005°16'0 0.0
2015-Apr-20 10:33N 59°24' E 005°16'0 0.0
2015-Apr-20 09:33N 59°24' E 005°16'0 0.0
2015-Apr-20 08:33N 59°24' E 005°16'0 0.0
2015-Apr-20 07:33N 59°24' E 005°16'0 0.0
2015-Apr-20 06:33N 59°24' E 005°16'2 1.6
2015-Apr-20 05:33N 59°25' E 005°14'9 8.4
2015-Apr-20 04:32N 59°27' E 004°58'19 8.9
2015-Apr-20 02:27N 59°27' E 004°22'8 9.3
2015-Apr-20 01:32N 59°26' E 004°05'  

Dump ship's entire track history